createdAt,value
2018-09-03T00:02:59.738Z,2.53
2018-09-03T00:08:03.800Z,2.77
2018-09-03T00:13:08.343Z,2.93
2018-09-03T00:18:28.609Z,2.77
2018-09-03T00:23:32.866Z,2.83
2018-09-03T00:28:36.737Z,2.87
2018-09-03T00:33:46.036Z,2.80
2018-09-03T00:39:09.952Z,2.90
2018-09-03T00:44:19.378Z,3.33
2018-09-03T00:49:23.441Z,3.13
2018-09-03T00:54:27.560Z,2.60
2018-09-03T00:59:32.300Z,2.77
2018-09-03T01:04:36.184Z,2.90
2018-09-03T01:09:40.096Z,3.13
2018-09-03T01:14:44.129Z,3.20
2018-09-03T01:19:47.916Z,3.20
2018-09-03T01:24:51.764Z,3.23
2018-09-03T01:29:55.697Z,2.90
2018-09-03T01:34:59.826Z,3.47
2018-09-03T01:40:03.901Z,3.40
2018-09-03T01:45:07.928Z,3.13
2018-09-03T01:50:11.834Z,3.20
2018-09-03T01:55:15.707Z,3.50
2018-09-03T02:00:19.373Z,3.40
2018-09-03T02:05:23.576Z,3.40
2018-09-03T02:10:27.278Z,3.13
2018-09-03T02:15:31.232Z,3.50
2018-09-03T02:20:34.981Z,3.40
2018-09-03T02:25:39.212Z,3.27
2018-09-03T02:30:43.309Z,3.37
2018-09-03T02:35:47.364Z,3.53
2018-09-03T02:40:51.166Z,3.67
2018-09-03T02:45:54.912Z,3.53
2018-09-03T02:50:59.483Z,3.50
2018-09-03T02:56:03.444Z,3.40
2018-09-03T03:01:07.200Z,3.50
2018-09-03T03:06:10.908Z,3.90
2018-09-03T03:11:14.598Z,3.70
2018-09-03T03:16:18.742Z,3.03
2018-09-03T03:21:22.854Z,3.10
2018-09-03T03:26:26.559Z,3.10
2018-09-03T03:31:30.297Z,3.20
2018-09-03T03:36:34.326Z,3.30
2018-09-03T03:41:38.338Z,3.37
2018-09-03T03:46:42.245Z,3.20
2018-09-03T03:52:02.215Z,3.30
2018-09-03T03:57:06.480Z,2.80
2018-09-03T04:02:10.725Z,3.00
2018-09-03T04:07:14.636Z,3.30
2018-09-03T04:12:18.567Z,3.43
2018-09-03T04:17:22.537Z,3.40
2018-09-03T04:22:26.847Z,3.60
2018-09-03T04:27:30.823Z,3.50
2018-09-03T04:32:34.621Z,3.37
2018-09-03T04:37:38.397Z,3.80
2018-09-03T04:42:42.507Z,3.83
2018-09-03T04:48:02.328Z,3.67
2018-09-03T04:53:06.527Z,3.30
2018-09-03T04:58:29.344Z,3.43
2018-09-03T05:03:33.934Z,3.90
2018-09-03T05:08:37.808Z,3.70
2018-09-03T05:13:41.487Z,3.80
2018-09-03T05:18:45.324Z,4.07
2018-09-03T05:23:49.221Z,3.90
2018-09-03T05:28:54.992Z,4.00
2018-09-03T05:33:58.695Z,3.73
2018-09-03T05:39:13.231Z,3.40
2018-09-03T05:44:17.028Z,4.30
2018-09-03T05:49:20.967Z,4.57
2018-09-03T05:54:24.641Z,4.10
2018-09-03T05:59:29.375Z,4.10
2018-09-03T06:04:33.855Z,4.37
2018-09-03T06:09:37.539Z,4.40
2018-09-03T06:14:41.892Z,5.33
2018-09-03T06:19:45.923Z,5.10
2018-09-03T06:24:50.014Z,4.63
2018-09-03T06:29:53.796Z,4.10
2018-09-03T06:34:57.621Z,4.70
2018-09-03T06:40:01.585Z,5.10
2018-09-03T06:45:08.052Z,5.43
2018-09-03T06:50:12.130Z,6.00
2018-09-03T06:55:16.088Z,4.73
2018-09-03T07:00:20.312Z,5.17
2018-09-03T07:05:23.952Z,6.27
2018-09-03T07:10:30.008Z,6.97
2018-09-03T07:15:34.395Z,5.73
2018-09-03T07:20:38.158Z,6.53
2018-09-03T07:25:41.815Z,5.50
2018-09-03T07:30:45.596Z,6.23
2018-09-03T07:35:49.450Z,7.00
2018-09-03T07:40:53.124Z,6.97
2018-09-03T07:46:18.887Z,7.00
2018-09-03T07:51:22.831Z,6.93
2018-09-03T07:56:27.057Z,7.30
2018-09-03T08:01:31.076Z,7.30
2018-09-03T08:06:35.168Z,8.20
2018-09-03T08:11:39.378Z,7.80
2018-09-03T08:16:43.135Z,8.10
2018-09-03T08:21:47.102Z,8.23
2018-09-03T08:26:50.988Z,8.10
2018-09-03T08:31:55.350Z,9.00
2018-09-03T08:36:59.480Z,9.77
2018-09-03T08:42:03.349Z,8.73
2018-09-03T08:58:23.448Z,8.87
2018-09-03T09:03:32.494Z,9.40
2018-09-03T09:19:32.834Z,9.27
2018-09-03T09:24:36.977Z,9.73
2018-09-03T09:29:40.905Z,9.90
2018-09-03T09:34:44.574Z,9.43
2018-09-03T09:39:48.559Z,10.80
2018-09-03T09:44:52.242Z,10.00
2018-09-03T09:49:55.980Z,9.93
2018-09-03T09:54:59.978Z,11.00
2018-09-03T10:00:03.732Z,10.40
2018-09-03T10:05:08.130Z,11.10
2018-09-03T10:10:12.432Z,12.53
2018-09-03T10:15:16.375Z,13.23
2018-09-03T10:20:20.302Z,13.63
2018-09-03T10:25:24.609Z,12.67
2018-09-03T10:30:28.568Z,14.27
2018-09-03T10:35:32.536Z,12.97
2018-09-03T10:40:36.769Z,13.63
2018-09-03T10:45:43.883Z,13.27
2018-09-03T10:50:47.695Z,13.50
2018-09-03T10:55:51.533Z,14.40
2018-09-03T11:00:55.497Z,13.50
2018-09-03T11:05:59.426Z,14.10
2018-09-03T11:11:03.279Z,13.17
2018-09-03T11:16:07.251Z,14.07
2018-09-03T11:21:11.064Z,13.20
2018-09-03T11:26:15.318Z,15.60
2018-09-03T11:31:18.882Z,15.27
2018-09-03T11:36:22.781Z,17.20
2018-09-03T11:41:26.509Z,21.07
2018-09-03T11:46:30.464Z,23.37
2018-09-03T11:51:34.141Z,22.70
2018-09-03T11:56:38.191Z,26.17
2018-09-03T12:01:41.835Z,25.90
2018-09-03T12:06:46.183Z,26.33
2018-09-03T12:11:50.272Z,24.03
2018-09-03T12:16:54.365Z,23.53
2018-09-03T12:21:58.056Z,20.63
2018-09-03T12:27:02.576Z,21.73
2018-09-03T12:32:06.593Z,19.17
2018-09-03T12:37:10.964Z,18.30
2018-09-03T12:42:15.276Z,21.53
2018-09-03T12:47:19.209Z,18.80
2018-09-03T12:52:23.008Z,19.50
2018-09-03T12:57:27.157Z,19.23
2018-09-03T13:02:39.412Z,21.13
2018-09-03T13:07:35.003Z,19.70
2018-09-03T13:12:38.983Z,17.60
2018-09-03T13:17:42.786Z,18.97
2018-09-03T13:22:46.707Z,21.60
2018-09-03T13:27:50.591Z,18.93
2018-09-03T13:32:54.449Z,21.70
2018-09-03T13:37:58.381Z,16.57
2018-09-03T13:43:02.186Z,19.13
2018-09-03T13:48:06.430Z,19.97
2018-09-03T13:53:10.659Z,21.80
2018-09-03T14:03:43.130Z,22.27
2018-09-03T14:08:49.195Z,21.10
2018-09-03T14:13:53.103Z,22.87
2018-09-03T14:19:04.507Z,21.17
2018-09-03T14:24:08.750Z,24.73
2018-09-03T14:29:17.466Z,23.50
2018-09-03T14:34:21.315Z,24.27
2018-09-03T14:39:41.384Z,21.87
2018-09-03T14:44:45.439Z,21.73
2018-09-03T14:49:49.361Z,22.03
2018-09-03T14:54:54.283Z,21.10
2018-09-03T14:59:58.679Z,19.73
2018-09-03T15:05:02.882Z,20.23
2018-09-03T15:10:07.402Z,19.50
2018-09-03T15:15:11.529Z,21.23
2018-09-03T15:20:15.488Z,22.77
2018-09-03T15:25:19.428Z,22.60
2018-09-03T15:30:23.456Z,24.07
2018-09-03T15:35:27.215Z,24.43
2018-09-03T15:40:31.100Z,22.00
2018-09-03T15:45:35.331Z,22.80
2018-09-03T15:50:39.173Z,22.40
2018-09-03T15:55:43.512Z,19.80
2018-09-03T16:00:47.540Z,19.47
2018-09-03T16:05:51.203Z,22.50
2018-09-03T16:10:55.386Z,18.60
2018-09-03T16:15:59.383Z,21.67
2018-09-03T16:21:03.564Z,18.47
2018-09-03T16:26:07.469Z,17.07
2018-09-03T16:31:11.352Z,17.63
2018-09-03T16:36:15.330Z,17.00
2018-09-03T16:41:19.335Z,18.90
2018-09-03T16:46:23.175Z,18.30
2018-09-03T16:51:27.080Z,16.93
2018-09-03T16:56:31.261Z,16.33
2018-09-03T17:01:35.356Z,16.63
2018-09-03T17:06:39.272Z,16.97
2018-09-03T17:11:43.319Z,16.93
2018-09-03T17:16:47.277Z,15.77
2018-09-03T17:21:51.248Z,16.47
2018-09-03T17:26:55.331Z,15.03
2018-09-03T17:31:59.431Z,15.80
2018-09-03T17:37:03.364Z,15.73
2018-09-03T17:42:07.209Z,15.60
2018-09-03T17:47:11.920Z,14.70
2018-09-03T17:52:15.811Z,14.40
2018-09-03T17:57:19.588Z,15.00
2018-09-03T18:02:23.784Z,15.10
2018-09-03T18:07:28.097Z,14.57
2018-09-03T18:12:31.973Z,14.57
2018-09-03T18:17:35.633Z,13.73
2018-09-03T18:22:40.017Z,14.53
2018-09-03T18:27:43.655Z,14.53
2018-09-03T18:32:47.861Z,15.17
2018-09-03T18:37:52.168Z,14.70
2018-09-03T18:42:56.465Z,15.03
2018-09-03T18:48:00.196Z,16.03
2018-09-03T18:53:04.135Z,17.10
2018-09-03T18:58:08.467Z,15.13
2018-09-03T19:03:12.554Z,15.20
2018-09-03T19:08:17.078Z,14.83
2018-09-03T19:13:20.904Z,15.33
2018-09-03T19:18:25.278Z,15.13
2018-09-03T19:23:28.968Z,15.83
2018-09-03T19:28:33.111Z,15.87
2018-09-03T19:33:37.177Z,15.10
2018-09-03T19:55:04.987Z,15.13
2018-09-03T20:00:08.617Z,15.03
2018-09-03T20:05:12.431Z,15.53
2018-09-03T20:10:16.108Z,14.63
2018-09-03T20:15:28.041Z,16.10
2018-09-03T20:20:31.784Z,15.83
2018-09-03T20:25:35.707Z,15.50
2018-09-03T20:30:39.429Z,16.80
2018-09-03T20:35:43.199Z,17.57
2018-09-03T20:40:47.250Z,18.13
2018-09-03T20:45:51.250Z,17.40
2018-09-03T20:50:54.840Z,15.47
2018-09-03T20:55:58.486Z,16.03
2018-09-03T21:01:02.410Z,16.23
2018-09-03T21:06:06.029Z,16.13
2018-09-03T21:11:09.957Z,18.70
2018-09-03T21:16:13.512Z,19.97
2018-09-03T21:21:17.260Z,19.37
2018-09-03T21:26:20.839Z,19.37
2018-09-03T21:31:24.730Z,19.50
2018-09-03T21:36:28.576Z,19.10
2018-09-03T21:41:32.251Z,21.60
2018-09-03T21:46:36.229Z,21.40
2018-09-03T21:51:40.166Z,20.87
2018-09-03T21:56:43.895Z,21.63
2018-09-03T22:01:47.697Z,21.40
2018-09-03T22:06:52.052Z,20.77
2018-09-03T22:11:55.776Z,19.27
2018-09-03T22:16:59.516Z,21.50
2018-09-03T22:22:03.211Z,24.63
2018-09-03T22:27:07.402Z,22.63
2018-09-03T22:32:11.268Z,22.60
2018-09-03T22:37:14.888Z,23.37
2018-09-03T22:42:18.600Z,25.33
2018-09-03T22:47:22.712Z,26.67
2018-09-03T22:52:26.632Z,28.33
2018-09-03T22:57:53.444Z,26.27
2018-09-03T23:02:58.403Z,25.87
2018-09-03T23:08:03.451Z,24.93
2018-09-03T23:13:07.541Z,25.40
2018-09-03T23:18:11.360Z,25.20
2018-09-03T23:23:15.568Z,25.70
2018-09-03T23:28:19.430Z,28.07
2018-09-03T23:33:23.624Z,30.47
2018-09-03T23:38:47.166Z,31.73
2018-09-03T23:43:50.780Z,32.77
2018-09-03T23:48:54.453Z,30.20
2018-09-03T23:53:58.492Z,31.40
2018-09-03T23:59:15.608Z,33.17
